Time;durP1;ratioP1;P1;durP2;ratioP2;P2;SDS_P1;SDS_P2;PMS_P1;PMS_P2;Temp;Humidity;BMP_temperature;BMP_pressure;BME280_temperature;BME280_humidity;BME280_pressure;Samples;Min_cycle;Max_cycle;Signal;HPM_P1;HPM_P2
2022/12/17 13:08:07;;;;;;;22.73;10.80;;;-2.90;99.90;;;;;;5078965;28;20031;-88
2022/12/17 13:10:35;;;;;;;16.20;8.13;;;-2.90;99.90;;;;;;5058197;28;20131;-88
2022/12/17 13:13:32;;;;;;;25.50;12.45;;;-2.80;99.90;;;;;;5074520;28;20111;-89
2022/12/17 13:16:14;;;;;;;18.15;9.57;;;-2.80;99.90;;;;;;5048284;28;20040;-88
2022/12/17 13:18:40;;;;;;;18.15;7.60;;;-2.80;99.90;;;;;;5074922;28;20106;-89
2022/12/17 13:21:25;;;;;;;20.80;8.25;;;-2.80;99.90;;;;;;5075808;28;20025;-88
2022/12/17 13:23:51;;;;;;;22.00;10.15;;;-2.70;99.90;;;;;;5091592;28;20029;-89
2022/12/17 13:26:38;;;;;;;17.17;7.35;;;-2.70;99.90;;;;;;5074173;28;20035;-88
2022/12/17 13:29:23;;;;;;;17.13;7.43;;;-2.70;99.90;;;;;;5085025;28;20028;-88
2022/12/17 13:31:55;;;;;;;19.40;7.60;;;-2.70;99.90;;;;;;5073433;28;20029;-88
2022/12/17 13:34:48;;;;;;;17.67;7.88;;;-2.70;99.90;;;;;;5073789;28;20028;-88
2022/12/17 13:37:49;;;;;;;18.70;8.00;;;-2.70;99.90;;;;;;5086427;28;20492;-88
2022/12/17 13:40:47;;;;;;;27.27;8.88;;;-2.70;99.90;;;;;;5066507;28;20032;-88
2022/12/17 13:43:23;;;;;;;21.50;9.50;;;-2.70;99.90;;;;;;5074380;28;20036;-88
2022/12/17 13:45:50;;;;;;;15.07;8.10;;;-2.80;99.90;;;;;;5074220;28;20031;-88
2022/12/17 13:48:22;;;;;;;18.23;8.77;;;-2.80;99.90;;;;;;5065183;28;20055;-88
2022/12/17 13:50:58;;;;;;;23.15;9.27;;;-2.70;99.90;;;;;;5079325;28;20032;-88
2022/12/17 13:53:26;;;;;;;21.15;9.15;;;-2.80;99.90;;;;;;5066760;28;20067;-89
2022/12/17 13:55:54;;;;;;;21.13;8.80;;;-2.90;99.90;;;;;;5073004;28;20119;-88
2022/12/17 13:58:31;;;;;;;26.92;9.32;;;-2.90;99.90;;;;;;5073570;28;20033;-88
2022/12/17 14:01:07;;;;;;;26.88;9.27;;;-2.80;99.90;;;;;;5075283;28;20051;-88
2022/12/17 14:03:34;;;;;;;23.00;10.80;;;-2.80;99.90;;;;;;5073046;28;20028;-88
2022/12/17 14:06:02;;;;;;;23.58;10.65;;;-2.90;99.90;;;;;;5056888;28;20387;-88
2022/12/17 14:08:31;;;;;;;24.33;10.60;;;-3.00;99.90;;;;;;5079440;28;20056;-88
2022/12/17 14:13:44;;;;;;;23.05;10.50;;;-3.00;99.90;;;;;;5074537;28;20032;-88
2022/12/17 14:16:15;;;;;;;28.75;12.30;;;-3.10;99.90;;;;;;5078884;28;20085;-87
2022/12/17 14:18:46;;;;;;;21.38;10.95;;;-3.10;99.90;;;;;;5073185;28;20471;-88
2022/12/17 14:21:12;;;;;;;25.88;11.32;;;-3.20;99.90;;;;;;5076912;28;20039;-88
2022/12/17 14:23:40;;;;;;;21.35;10.15;;;-3.20;99.90;;;;;;5090289;28;20028;-88
2022/12/17 14:26:09;;;;;;;21.95;11.00;;;-3.30;99.90;;;;;;5073736;28;20499;-87
2022/12/17 14:28:45;;;;;;;23.05;11.02;;;-3.40;99.90;;;;;;5074032;28;20055;-88
2022/12/17 14:31:13;;;;;;;24.42;10.77;;;-3.40;99.90;;;;;;5053370;28;20021;-87
2022/12/17 14:33:41;;;;;;;29.08;12.70;;;-3.50;99.90;;;;;;5054825;28;20047;-88
2022/12/17 14:36:20;;;;;;;26.80;12.32;;;-3.60;99.90;;;;;;5073915;28;20098;-88
2022/12/17 14:39:15;;;;;;;28.95;11.80;;;-3.70;99.90;;;;;;5056193;28;20028;-87
2022/12/17 14:44:27;;;;;;;23.10;12.23;;;-3.90;99.90;;;;;;5088957;28;20024;-88
2022/12/17 14:47:17;;;;;;;28.65;12.25;;;-4.00;99.90;;;;;;5072869;28;20052;-88
2022/12/17 14:49:59;;;;;;;29.67;12.40;;;-4.10;99.90;;;;;;5073575;28;20922;-88
2022/12/17 14:52:49;;;;;;;27.92;11.40;;;-4.30;99.90;;;;;;5072460;28;20036;-88
2022/12/17 14:55:31;;;;;;;26.33;13.02;;;-4.50;99.90;;;;;;5067822;28;20162;-87
2022/12/17 14:58:12;;;;;;;30.00;12.27;;;-4.60;99.90;;;;;;5064941;28;20033;-88
2022/12/17 15:01:15;;;;;;;25.85;11.93;;;-4.70;99.90;;;;;;5073043;28;20032;-88
2022/12/17 15:03:45;;;;;;;34.88;12.95;;;-4.80;99.90;;;;;;5071803;28;20040;-88
2022/12/17 15:06:15;;;;;;;30.70;13.07;;;-4.90;99.90;;;;;;5072217;28;20029;-88
2022/12/17 15:08:46;;;;;;;37.87;15.43;;;-5.00;99.90;;;;;;5076331;28;20025;-88
2022/12/17 15:11:13;;;;;;;;;;;-5.10;99.90;;;;;;5072440;28;20286;-88
2022/12/17 15:13:39;;;;;;;30.50;14.00;;;-5.30;99.90;;;;;;5088891;28;20037;-88
2022/12/17 15:16:05;;;;;;;28.52;13.60;;;-5.60;99.90;;;;;;5072179;28;20056;-87
2022/12/17 15:18:31;;;;;;;30.98;13.85;;;-5.70;99.90;;;;;;5071654;28;20513;-87
2022/12/17 15:20:57;;;;;;;33.88;14.52;;;-5.70;99.90;;;;;;5052031;28;20040;-88
2022/12/17 15:23:24;;;;;;;37.33;15.07;;;-5.80;99.90;;;;;;5055133;28;20028;-88
2022/12/17 15:25:51;;;;;;;40.35;12.82;;;-5.90;99.90;;;;;;5052789;28;20475;-87
2022/12/17 15:28:18;;;;;;;37.00;14.02;;;-5.90;99.90;;;;;;5067700;28;20021;-89
2022/12/17 15:30:44;;;;;;;30.20;13.20;;;-6.00;99.90;;;;;;5056252;28;20124;-88
2022/12/17 15:33:12;;;;;;;37.25;14.20;;;-6.10;99.90;;;;;;5072237;28;20020;-88
2022/12/17 15:35:38;;;;;;;34.83;14.07;;;-6.10;99.90;;;;;;5055818;28;20032;-88
2022/12/17 15:38:04;;;;;;;34.28;13.98;;;-6.10;99.90;;;;;;5055443;28;20086;-88
2022/12/17 15:40:30;;;;;;;36.47;14.40;;;-6.20;99.90;;;;;;5056081;28;20033;-88
2022/12/17 15:43:11;;;;;;;33.42;14.10;;;-6.20;99.90;;;;;;5072342;28;20095;-88
2022/12/17 15:45:41;;;;;;;38.05;15.90;;;-6.40;99.90;;;;;;5072608;28;20036;-88
2022/12/17 15:48:08;;;;;;;43.33;15.15;;;-6.60;99.90;;;;;;5072590;28;20032;-88
2022/12/17 15:50:34;;;;;;;42.45;15.23;;;-6.70;99.90;;;;;;5072590;28;20025;-88
2022/12/17 15:53:00;;;;;;;35.08;14.63;;;-6.80;99.90;;;;;;5052509;28;20028;-88
2022/12/17 15:55:26;;;;;;;46.78;16.00;;;-6.80;99.90;;;;;;5069206;28;20032;-88
2022/12/17 15:57:52;;;;;;;47.60;16.67;;;-6.80;99.90;;;;;;5074274;28;20142;-88
2022/12/17 16:00:17;;;;;;;44.83;16.63;;;-7.00;99.90;;;;;;5074287;28;20044;-88
2022/12/17 16:02:44;;;;;;;41.90;17.70;;;-7.00;99.90;;;;;;5076987;28;20032;-88
2022/12/17 16:05:09;;;;;;;41.97;17.67;;;-7.00;99.90;;;;;;5076235;28;20029;-87
2022/12/17 16:07:36;;;;;;;38.30;16.63;;;-7.00;99.90;;;;;;5076304;28;20446;-88
2022/12/17 16:10:03;;;;;;;46.72;17.08;;;-7.00;99.90;;;;;;5093311;28;20034;-88
2022/12/17 16:12:29;;;;;;;44.80;17.23;;;-7.10;99.90;;;;;;5075862;28;20028;-88
2022/12/17 16:14:55;;;;;;;42.25;17.33;;;-7.20;99.90;;;;;;5060856;28;20120;-88
2022/12/17 16:17:20;;;;;;;40.17;17.45;;;-7.10;99.90;;;;;;5095566;28;20407;-88
2022/12/17 16:19:46;;;;;;;42.30;18.02;;;-7.10;99.90;;;;;;5059168;28;20036;-87
2022/12/17 16:22:12;;;;;;;45.17;17.02;;;-7.10;99.90;;;;;;5077082;28;20073;-87
2022/12/17 16:24:39;;;;;;;42.63;18.33;;;-7.20;99.90;;;;;;5076021;28;20032;-88
2022/12/17 16:27:20;;;;;;;52.67;18.73;;;-7.20;99.90;;;;;;5075713;28;20028;-88
2022/12/17 16:29:47;;;;;;;51.53;18.70;;;-7.20;99.90;;;;;;5071592;28;20028;-88
2022/12/17 16:32:13;;;;;;;55.65;20.95;;;-7.30;99.90;;;;;;5075779;28;20025;-88
2022/12/17 16:34:43;;;;;;;54.15;22.10;;;-7.40;99.90;;;;;;5075788;28;20032;-87
2022/12/17 16:37:09;;;;;;;45.83;20.42;;;-7.50;99.90;;;;;;5075772;28;20024;-88
2022/12/17 16:39:35;;;;;;;66.93;24.15;;;-7.50;99.90;;;;;;5092468;28;20068;-88
2022/12/17 16:42:01;;;;;;;64.38;24.73;;;-7.50;99.90;;;;;;5092803;28;20188;-88
2022/12/17 16:44:26;;;;;;;73.47;26.67;;;-7.50;99.90;;;;;;5075579;28;20024;-88
2022/12/17 16:46:52;;;;;;;70.00;28.55;;;-7.40;99.90;;;;;;5075344;28;20025;-88
2022/12/17 16:49:20;;;;;;;69.20;25.92;;;-7.20;99.90;;;;;;5075353;28;20028;-88
2022/12/17 16:51:48;;;;;;;68.90;27.52;;;-7.10;99.90;;;;;;5075278;28;20553;-88
2022/12/17 16:54:15;;;;;;;56.17;24.25;;;-7.00;99.90;;;;;;5074642;28;20025;-88
2022/12/17 16:56:42;;;;;;;62.88;26.50;;;-6.80;99.90;;;;;;5075384;28;20090;-88
2022/12/17 16:59:10;;;;;;;64.00;26.27;;;-6.70;99.90;;;;;;5075202;28;20533;-88
2022/12/17 17:01:37;;;;;;;69.68;25.58;;;-6.70;99.90;;;;;;5075266;28;20029;-87
2022/12/17 17:04:04;;;;;;;62.55;25.65;;;-6.60;99.90;;;;;;5075128;28;20380;-88
2022/12/17 17:06:30;;;;;;;60.95;24.00;;;-6.60;99.90;;;;;;5075211;28;20036;-88
2022/12/17 17:08:56;;;;;;;65.97;24.80;;;-6.50;99.90;;;;;;5074738;28;20349;-88
2022/12/17 17:11:23;;;;;;;64.22;25.45;;;-6.50;99.90;;;;;;5075078;28;20090;-88
2022/12/17 17:13:52;;;;;;;60.47;24.45;;;-6.50;99.90;;;;;;5074153;28;20577;-87
2022/12/17 17:16:21;;;;;;;65.50;23.98;;;-6.50;99.90;;;;;;5055075;28;20170;-88
2022/12/17 17:19:05;;;;;;;61.20;24.30;;;-6.40;99.90;;;;;;5074672;28;20031;-88
2022/12/17 17:21:39;;;;;;;59.30;24.30;;;-6.40;99.90;;;;;;5074692;28;20036;-88
2022/12/17 17:24:16;;;;;;;61.75;23.92;;;-6.50;99.90;;;;;;5083544;28;20055;-88
2022/12/17 17:26:42;;;;;;;56.75;24.50;;;-6.50;99.90;;;;;;5072152;28;20032;-88
2022/12/17 17:29:08;;;;;;;59.40;23.80;;;-6.40;99.90;;;;;;5075112;28;20024;-88
2022/12/17 17:31:35;;;;;;;57.95;23.30;;;-6.40;99.90;;;;;;5074846;28;20476;-88
2022/12/17 17:34:12;;;;;;;56.10;23.83;;;-6.40;99.90;;;;;;5082699;28;20457;-87
2022/12/17 17:36:39;;;;;;;65.47;25.98;;;-6.40;99.90;;;;;;5071947;28;20033;-89
2022/12/17 17:39:05;;;;;;;70.28;27.83;;;-6.40;99.90;;;;;;5091117;28;20029;-88
2022/12/17 17:41:32;;;;;;;60.75;26.50;;;-6.30;99.90;;;;;;5073978;28;20101;-88
2022/12/17 17:44:00;;;;;;;73.25;27.17;;;-6.20;99.90;;;;;;5082271;28;20048;-88
2022/12/17 17:46:28;;;;;;;70.22;26.88;;;-6.20;99.90;;;;;;5074059;28;20036;-87
2022/12/17 17:48:56;;;;;;;69.47;28.35;;;-6.20;99.90;;;;;;5057629;28;20032;-88
2022/12/17 17:51:24;;;;;;;65.00;27.13;;;-6.20;99.90;;;;;;5074317;28;20039;-88
2022/12/17 17:53:51;;;;;;;71.40;28.33;;;-6.30;99.90;;;;;;5057947;28;20024;-88
2022/12/17 17:56:23;;;;;;;72.78;29.50;;;-6.30;99.90;;;;;;5074076;28;20029;-87
2022/12/17 17:58:57;;;;;;;75.45;29.40;;;-6.30;99.90;;;;;;5074026;28;20500;-87
2022/12/17 18:01:31;;;;;;;74.90;29.17;;;-6.30;99.90;;;;;;5075250;28;20028;-88
2022/12/17 18:04:02;;;;;;;70.75;28.25;;;-6.40;99.90;;;;;;5074068;28;20032;-88
2022/12/17 18:06:28;;;;;;;70.05;29.35;;;-6.40;99.90;;;;;;5057171;28;20483;-88
2022/12/17 18:08:56;;;;;;;79.40;29.85;;;-6.40;99.90;;;;;;5079630;28;20473;-87
2022/12/17 18:11:23;;;;;;;80.45;30.33;;;-6.40;99.90;;;;;;5076068;28;20137;-88
2022/12/17 18:13:55;;;;;;;72.72;30.80;;;-6.40;99.90;;;;;;5074694;28;20035;-87
2022/12/17 18:16:37;;;;;;;66.72;29.38;;;-6.40;99.90;;;;;;5074008;28;20029;-88
2022/12/17 18:19:13;;;;;;;78.05;29.67;;;-6.40;99.90;;;;;;5076253;28;20033;-88
2022/12/17 18:21:39;;;;;;;86.07;33.53;;;-6.40;99.90;;;;;;5074309;28;20029;-87
2022/12/17 18:24:11;;;;;;;80.00;32.88;;;-6.40;99.90;;;;;;5072591;28;20120;-87
2022/12/17 18:26:41;;;;;;;69.07;31.10;;;-6.40;99.90;;;;;;5090511;28;20032;-88
2022/12/17 18:29:42;;;;;;;73.18;29.58;;;-6.40;99.90;;;;;;5073301;28;20380;-88
2022/12/17 18:32:11;;;;;;;80.03;33.22;;;-6.40;99.90;;;;;;5056664;28;20500;-88
2022/12/17 18:38:25;;;;;;;77.22;29.67;;;-6.40;99.90;;;;;;5059949;28;20036;-88
2022/12/17 18:40:51;;;;;;;74.85;31.70;;;-6.40;99.90;;;;;;5073132;28;20021;-88
2022/12/17 18:43:22;;;;;;;84.97;32.30;;;-6.40;99.90;;;;;;5069921;28;20040;-88
2022/12/17 18:45:49;;;;;;;82.28;30.85;;;-6.50;99.90;;;;;;5068005;28;20036;-88
2022/12/17 18:48:15;;;;;;;78.57;31.27;;;-6.60;99.90;;;;;;5073623;28;20013;-88
2022/12/17 18:50:40;;;;;;;75.45;30.40;;;-6.60;99.90;;;;;;5073207;28;20032;-88
2022/12/17 18:53:06;;;;;;;79.75;31.85;;;-6.70;99.90;;;;;;5073055;28;20687;-87
2022/12/17 18:55:31;;;;;;;79.43;31.33;;;-6.80;99.90;;;;;;5060513;28;20039;-88
2022/12/17 18:57:57;;;;;;;78.90;31.13;;;-6.90;99.90;;;;;;5056914;28;20024;-88
2022/12/17 19:00:23;;;;;;;84.07;31.10;;;-6.90;99.90;;;;;;5073409;28;20746;-87
2022/12/17 19:06:14;;;;;;;73.15;28.10;;;-7.00;99.90;;;;;;5082138;28;20028;-87
2022/12/17 19:08:40;;;;;;;73.57;29.60;;;-6.90;99.90;;;;;;5072390;28;20093;-87
2022/12/17 19:11:15;;;;;;;82.97;31.50;;;-6.80;99.90;;;;;;5081258;28;20051;-88
2022/12/17 19:13:41;;;;;;;85.05;32.78;;;-6.80;99.90;;;;;;5065319;28;20028;-88
2022/12/17 19:16:22;;;;;;;84.22;31.63;;;-6.80;99.90;;;;;;5058343;28;20374;-88
2022/12/17 19:19:01;;;;;;;85.38;31.42;;;-6.70;99.90;;;;;;5073075;28;20031;-88
2022/12/17 19:21:27;;;;;;;83.72;31.75;;;-6.80;99.90;;;;;;5077962;28;20131;-88
2022/12/17 19:24:01;;;;;;;92.32;33.22;;;-6.70;99.90;;;;;;5078662;28;20020;-87
2022/12/17 19:26:27;;;;;;;80.32;32.40;;;-6.60;99.90;;;;;;5087715;28;20036;-86
2022/12/17 19:28:55;;;;;;;83.00;31.55;;;-6.60;99.90;;;;;;5081836;28;20364;-88
2022/12/17 19:31:23;;;;;;;89.10;34.05;;;-6.60;99.90;;;;;;5072930;28;20031;-88
2022/12/17 19:33:53;;;;;;;84.18;34.80;;;-6.60;99.90;;;;;;5071657;28;20045;-87
2022/12/17 19:36:20;;;;;;;86.32;32.30;;;-6.70;99.90;;;;;;5068938;28;20527;-87
2022/12/17 19:38:49;;;;;;;81.75;32.80;;;-6.90;99.90;;;;;;5076817;28;20534;-87
2022/12/17 19:41:16;;;;;;;96.65;36.33;;;-6.90;99.90;;;;;;5048652;28;20595;-87
2022/12/17 19:43:47;;;;;;;113.75;41.45;;;-7.00;99.90;;;;;;5079811;28;20066;-87
2022/12/17 19:46:16;;;;;;;107.47;38.50;;;-7.10;99.90;;;;;;5082469;28;20425;-87
2022/12/17 19:48:43;;;;;;;119.75;41.90;;;-7.00;99.90;;;;;;5059557;28;20127;-87
2022/12/17 19:51:10;;;;;;;111.40;39.90;;;-7.00;99.90;;;;;;5062386;28;20024;-87
2022/12/17 19:53:37;;;;;;;109.47;38.03;;;-7.10;99.90;;;;;;5057400;28;20039;-87
2022/12/17 19:56:40;;;;;;;94.78;37.40;;;-7.10;99.90;;;;;;5093372;28;20109;-87
2022/12/17 19:59:07;;;;;;;148.32;48.50;;;-7.10;99.90;;;;;;5078532;28;20039;-87
2022/12/17 20:01:43;;;;;;;146.68;49.53;;;-7.10;99.90;;;;;;5053299;28;20029;-87
2022/12/17 20:04:11;;;;;;;126.03;45.20;;;-7.10;99.90;;;;;;5076103;28;20031;-87
2022/12/17 20:06:37;;;;;;;110.72;42.25;;;-7.20;99.90;;;;;;5075820;28;20029;-87
2022/12/17 20:09:04;;;;;;;101.15;40.88;;;-7.20;99.90;;;;;;5055104;28;20353;-87
2022/12/17 20:11:40;;;;;;;99.13;37.22;;;-7.10;99.90;;;;;;5078870;28;20035;-87
2022/12/17 20:14:19;;;;;;;93.10;38.17;;;-7.00;99.90;;;;;;5070644;28;20120;-87
2022/12/17 20:16:50;;;;;;;88.07;36.28;;;-7.10;99.90;;;;;;5071964;28;20103;-87
2022/12/17 20:19:18;;;;;;;94.07;36.47;;;-7.10;99.90;;;;;;5063904;28;20020;-87
2022/12/17 20:21:44;;;;;;;92.45;35.97;;;-7.10;99.90;;;;;;5069354;28;20033;-86
2022/12/17 20:24:10;;;;;;;95.25;36.85;;;-7.20;99.90;;;;;;5083295;28;20021;-88
2022/12/17 20:26:37;;;;;;;89.50;33.35;;;-7.30;99.90;;;;;;5070807;28;20082;-87
2022/12/17 20:29:09;;;;;;;88.28;34.97;;;-7.30;99.90;;;;;;5062837;28;20038;-88
2022/12/17 20:31:35;;;;;;;91.78;34.50;;;-7.20;99.90;;;;;;5068362;28;20025;-87
2022/12/17 20:34:06;;;;;;;94.53;34.47;;;-7.30;99.90;;;;;;5067800;28;20402;-87
2022/12/17 20:36:32;;;;;;;93.07;33.10;;;-7.40;99.90;;;;;;5056474;28;20497;-87
2022/12/17 20:38:58;;;;;;;87.82;36.15;;;-7.30;99.90;;;;;;5069592;28;20029;-87
2022/12/17 20:41:26;;;;;;;85.00;35.75;;;-7.30;99.90;;;;;;5057349;28;20433;-87
2022/12/17 20:43:53;;;;;;;89.45;33.95;;;-7.20;99.90;;;;;;5080247;28;20365;-87
2022/12/17 20:46:21;;;;;;;92.68;36.10;;;-7.20;99.90;;;;;;5079353;28;20028;-87
2022/12/17 20:48:46;;;;;;;92.57;34.85;;;-7.10;99.90;;;;;;5070530;28;20020;-87
2022/12/17 20:51:31;;;;;;;100.00;37.28;;;-7.00;99.90;;;;;;5085887;28;20114;-87
2022/12/17 20:53:58;;;;;;;97.35;36.65;;;-7.00;99.90;;;;;;5083776;28;20111;-87
2022/12/17 20:56:28;;;;;;;98.28;38.25;;;-7.00;99.90;;;;;;5068604;28;20068;-87
2022/12/17 20:58:56;;;;;;;106.25;41.85;;;-7.10;99.90;;;;;;5079918;28;20103;-87
2022/12/17 21:01:23;;;;;;;105.82;39.88;;;-7.20;99.90;;;;;;5064246;28;20028;-88
2022/12/17 21:03:51;;;;;;;96.07;36.85;;;-7.30;99.90;;;;;;5078550;28;20116;-87
2022/12/17 21:06:19;;;;;;;104.68;40.25;;;-7.30;99.90;;;;;;5054108;28;20024;-87
2022/12/17 21:08:49;;;;;;;99.05;38.90;;;-7.30;99.90;;;;;;5059134;28;20415;-87
2022/12/17 21:11:16;;;;;;;98.85;38.45;;;-7.30;99.90;;;;;;5044892;28;20030;-87
2022/12/17 21:13:42;;;;;;;90.05;36.45;;;-7.40;99.90;;;;;;5069413;28;20037;-87
2022/12/17 21:16:28;;;;;;;98.50;36.92;;;-7.50;99.90;;;;;;5077451;28;20032;-87
2022/12/17 21:18:55;;;;;;;108.13;37.13;;;-7.50;99.90;;;;;;5061072;28;20040;-87
2022/12/17 21:21:24;;;;;;;111.22;39.75;;;-7.50;99.90;;;;;;5082596;28;20063;-87
2022/12/17 21:23:50;;;;;;;103.80;36.72;;;-7.50;99.90;;;;;;5080554;28;20040;-87
2022/12/17 21:26:20;;;;;;;116.05;39.60;;;-7.40;99.90;;;;;;5080252;28;20118;-87
2022/12/17 21:28:47;;;;;;;109.55;42.00;;;-7.50;99.90;;;;;;5068977;28;20051;-87
2022/12/17 21:31:21;;;;;;;123.82;45.65;;;-7.50;99.90;;;;;;5066985;28;20088;-87
2022/12/17 21:33:49;;;;;;;116.20;41.72;;;-7.60;99.90;;;;;;5075396;28;20458;-87
2022/12/17 21:36:16;;;;;;;115.90;41.28;;;-7.70;99.90;;;;;;5055740;28;20028;-87
2022/12/17 21:38:42;;;;;;;115.82;43.70;;;-7.80;99.90;;;;;;5059512;28;20029;-87
2022/12/17 21:41:11;;;;;;;140.27;52.22;;;-7.80;99.90;;;;;;5077238;28;20047;-87
2022/12/17 21:43:38;;;;;;;128.30;48.17;;;-7.90;99.90;;;;;;5075489;28;20036;-87
2022/12/17 21:46:04;;;;;;;126.43;46.47;;;-7.80;99.90;;;;;;5071417;28;20032;-87
2022/12/17 21:48:30;;;;;;;125.93;46.50;;;-7.90;99.90;;;;;;5074103;28;20468;-88
2022/12/17 21:50:56;;;;;;;148.65;51.15;;;-8.00;99.90;;;;;;5073539;28;20017;-88
2022/12/17 21:53:22;;;;;;;147.00;53.50;;;-8.00;99.90;;;;;;5054128;28;20120;-88
2022/12/17 21:55:48;;;;;;;122.30;46.03;;;-7.90;99.90;;;;;;5074126;28;20058;-87
2022/12/17 21:58:14;;;;;;;117.45;44.00;;;-8.00;99.90;;;;;;5057143;28;20536;-88
2022/12/17 22:00:41;;;;;;;109.30;38.70;;;-8.10;99.90;;;;;;5090758;28;20055;-88
2022/12/17 22:03:07;;;;;;;111.93;41.17;;;-8.20;99.90;;;;;;5057173;28;20135;-88
2022/12/17 22:05:35;;;;;;;137.23;50.80;;;-8.20;99.90;;;;;;5070094;28;20086;-88
2022/12/17 22:08:01;;;;;;;182.02;57.00;;;-8.20;99.90;;;;;;5074701;28;20043;-87
2022/12/17 22:10:27;;;;;;;180.63;59.92;;;-8.30;99.90;;;;;;5073849;28;20025;-88
2022/12/17 22:15:38;;;;;;;265.00;79.82;;;-8.50;99.90;;;;;;5085451;28;20033;-88
2022/12/17 22:18:04;;;;;;;231.48;76.20;;;-8.50;99.90;;;;;;5055128;28;20028;-88
2022/12/17 22:20:30;;;;;;;123.85;46.15;;;-8.50;99.90;;;;;;5056902;28;20032;-88
2022/12/17 22:22:55;;;;;;;109.88;40.13;;;-8.30;99.90;;;;;;5087309;28;20038;-88
2022/12/17 22:25:21;;;;;;;123.00;43.30;;;-8.10;99.90;;;;;;5073412;28;20028;-88
2022/12/17 22:27:46;;;;;;;125.63;41.53;;;-7.70;99.90;;;;;;5073424;28;20036;-88
2022/12/17 22:33:04;;;;;;;123.03;42.63;;;-7.30;99.90;;;;;;5074341;28;20024;-87
2022/12/17 22:35:41;;;;;;;128.93;44.50;;;-7.20;99.90;;;;;;5073273;28;20047;-88
2022/12/17 22:38:07;;;;;;;132.15;45.15;;;-7.10;99.90;;;;;;5073069;28;20031;-88
2022/12/17 22:40:38;;;;;;;130.95;44.05;;;-7.00;99.90;;;;;;5073108;28;20044;-87
2022/12/17 22:45:48;;;;;;;125.65;46.00;;;-6.80;99.90;;;;;;5089834;28;20181;-87
2022/12/17 22:48:14;;;;;;;132.18;46.33;;;-6.80;99.90;;;;;;5056144;28;20095;-88
2022/12/17 22:50:41;;;;;;;124.45;44.60;;;-6.90;99.90;;;;;;5089771;28;20487;-88
2022/12/17 22:53:06;;;;;;;128.50;43.97;;;-6.90;99.90;;;;;;5056409;28;20063;-88
2022/12/17 22:55:32;;;;;;;134.55;45.17;;;-7.00;99.90;;;;;;5072948;28;20472;-88
2022/12/17 22:57:58;;;;;;;119.00;41.83;;;-7.00;99.90;;;;;;5073015;28;20479;-88
2022/12/17 23:00:33;;;;;;;118.95;42.03;;;-7.00;99.90;;;;;;5071975;28;20476;-88
2022/12/17 23:02:59;;;;;;;126.13;42.00;;;-6.90;99.90;;;;;;5072798;28;20032;-88
2022/12/17 23:05:26;;;;;;;111.75;40.65;;;-6.90;99.90;;;;;;5089775;28;20024;-88
2022/12/17 23:07:52;;;;;;;115.80;40.00;;;-6.90;99.90;;;;;;5056106;28;20035;-87
2022/12/17 23:10:18;;;;;;;137.25;44.20;;;-6.90;99.90;;;;;;5058744;28;20111;-88
2022/12/17 23:12:50;;;;;;;146.55;47.60;;;-6.90;99.90;;;;;;5074225;28;20074;-87
2022/12/17 23:15:43;;;;;;;126.68;43.85;;;-6.90;99.90;;;;;;5072199;28;20025;-87
2022/12/17 23:18:09;;;;;;;111.35;37.35;;;-7.00;99.90;;;;;;5067281;28;20041;-87
2022/12/17 23:20:35;;;;;;;112.10;38.85;;;-7.10;99.90;;;;;;5072327;28;20507;-88
2022/12/17 23:23:01;;;;;;;111.00;36.15;;;-7.10;99.90;;;;;;5072308;28;20032;-88
2022/12/17 23:25:28;;;;;;;101.43;33.78;;;-7.10;99.90;;;;;;5072322;28;20079;-88
2022/12/17 23:27:59;;;;;;;100.38;34.38;;;-6.90;99.90;;;;;;5072381;28;20032;-88
2022/12/17 23:30:25;;;;;;;96.68;33.17;;;-6.80;99.90;;;;;;5072700;28;20036;-88
2022/12/17 23:32:51;;;;;;;97.63;33.63;;;-6.80;99.90;;;;;;5076217;28;20029;-88
2022/12/17 23:35:17;;;;;;;96.93;33.75;;;-6.70;99.90;;;;;;5055550;28;20017;-88
2022/12/17 23:37:42;;;;;;;104.32;36.20;;;-6.70;99.90;;;;;;5072015;28;20028;-88
2022/12/17 23:40:10;;;;;;;92.60;33.70;;;-6.60;99.90;;;;;;5055304;28;20020;-88
2022/12/17 23:42:35;;;;;;;94.18;33.47;;;-6.60;99.90;;;;;;5072299;28;20074;-88
2022/12/17 23:45:01;;;;;;;93.15;35.25;;;-6.60;99.90;;;;;;5071992;28;20031;-88
2022/12/17 23:47:27;;;;;;;97.63;32.03;;;-6.70;99.90;;;;;;5072079;28;20123;-88
2022/12/17 23:49:53;;;;;;;90.07;33.30;;;-6.70;99.90;;;;;;5072230;28;20032;-88
2022/12/17 23:52:19;;;;;;;100.22;31.42;;;-6.70;99.90;;;;;;5072123;28;20526;-88
2022/12/17 23:54:44;;;;;;;95.18;31.30;;;-6.60;99.90;;;;;;5055213;28;20036;-88
2022/12/17 23:57:10;;;;;;;94.57;31.75;;;-6.50;99.90;;;;;;5060749;28;20189;-88
2022/12/17 23:59:36;;;;;;;93.00;32.00;;;-6.50;99.90;;;;;;5055963;28;20472;-88
